createdAt,value
2023-01-18T00:02:55.249Z,98539.47
2023-01-18T00:06:01.596Z,98533.19
2023-01-18T00:09:04.770Z,98532.03
2023-01-18T00:12:08.345Z,98523.19
2023-01-18T00:15:15.660Z,98517.34
2023-01-18T00:18:21.679Z,98514.31
2023-01-18T00:21:26.860Z,98510.22
2023-01-18T00:24:30.774Z,98512.25
2023-01-18T00:27:33.915Z,98503.50
2023-01-18T00:30:38.342Z,98503.50
2023-01-18T00:33:43.872Z,98505.94
2023-01-18T00:36:49.440Z,98500.66
2023-01-18T00:39:52.406Z,98500.03
2023-01-18T00:43:13.194Z,98513.50
2023-01-18T00:46:20.208Z,98513.59
2023-01-18T00:49:24.024Z,98501.91
2023-01-18T00:52:27.186Z,98500.19
2023-01-18T00:55:30.264Z,98512.28
2023-01-18T00:58:33.369Z,98516.66
2023-01-18T01:01:37.896Z,98518.22
2023-01-18T01:04:58.346Z,98523.06
2023-01-18T01:08:01.381Z,98511.97
2023-01-18T01:11:07.875Z,98515.34
2023-01-18T01:14:28.935Z,98527.28
2023-01-18T01:17:54.160Z,98539.22
2023-01-18T01:21:14.588Z,98547.94
2023-01-18T01:24:35.648Z,98564.88
2023-01-18T01:27:38.736Z,98569.41
2023-01-18T01:30:41.819Z,98572.78
2023-01-18T01:33:49.029Z,98569.84
2023-01-18T01:36:52.168Z,98590.53
2023-01-18T01:39:55.161Z,98590.19
2023-01-18T01:42:58.613Z,98576.72
2023-01-18T01:46:02.885Z,98587.16
2023-01-18T01:49:13.103Z,98578.44
2023-01-18T01:52:21.627Z,98586.91
2023-01-18T01:55:28.874Z,98597.69
2023-01-18T01:58:33.484Z,98603.47
2023-01-18T02:01:37.492Z,98607.47
2023-01-18T02:04:46.532Z,98600.72
2023-01-18T02:07:50.151Z,98610.34
2023-01-18T02:10:54.044Z,98605.25
2023-01-18T02:14:01.254Z,98605.09
2023-01-18T02:17:17.570Z,98586.47
2023-01-18T02:20:51.839Z,98586.41
2023-01-18T02:24:41.851Z,98590.50
2023-01-18T02:27:52.375Z,98593.81
2023-01-18T02:31:04.116Z,98587.03
2023-01-18T02:34:16.520Z,98591.50
2023-01-18T02:37:27.236Z,98590.69
2023-01-18T02:40:57.266Z,98598.91
2023-01-18T02:44:18.346Z,98602.34
2023-01-18T02:47:23.997Z,98603.72
2023-01-18T02:50:28.889Z,98597.69
2023-01-18T02:53:33.009Z,98603.88
2023-01-18T02:56:40.594Z,98597.59
2023-01-18T02:59:48.703Z,98604.19
2023-01-18T03:02:55.857Z,98598.16
2023-01-18T03:06:02.187Z,98593.97
2023-01-18T03:09:05.609Z,98595.97
2023-01-18T03:12:20.670Z,98596.88
2023-01-18T03:15:30.800Z,98601.06
2023-01-18T03:19:00.366Z,98607.81
2023-01-18T03:22:04.274Z,98611.28
2023-01-18T03:25:10.269Z,98592.69
2023-01-18T03:28:36.198Z,98591.00
2023-01-18T03:32:02.991Z,98607.19
2023-01-18T03:35:14.299Z,98611.28
2023-01-18T03:38:18.851Z,98599.59
2023-01-18T03:41:26.410Z,98606.31
2023-01-18T03:44:36.783Z,98615.47
2023-01-18T03:47:40.719Z,98608.81
2023-01-18T03:50:51.089Z,98607.81
2023-01-18T03:54:03.179Z,98606.25
2023-01-18T03:57:13.765Z,98603.53
2023-01-18T04:00:17.641Z,98597.44
2023-01-18T04:03:20.831Z,98585.41
2023-01-18T04:06:25.774Z,98593.38
2023-01-18T04:09:28.870Z,98600.03
2023-01-18T04:12:34.296Z,98603.22
2023-01-18T04:15:37.294Z,98598.69
2023-01-18T04:18:40.293Z,98585.25
2023-01-18T04:21:45.032Z,98590.47
2023-01-18T04:24:48.084Z,98592.00
2023-01-18T04:27:51.128Z,98592.09
2023-01-18T04:30:55.151Z,98592.00
2023-01-18T04:33:58.296Z,98590.31
2023-01-18T04:37:02.653Z,98596.50
2023-01-18T04:40:06.805Z,98597.13
2023-01-18T04:43:10.208Z,98584.34
2023-01-18T04:46:13.253Z,98604.78
2023-01-18T04:49:17.448Z,98604.78
2023-01-18T04:52:21.882Z,98602.78
2023-01-18T04:55:24.886Z,98604.63
2023-01-18T04:58:27.863Z,98606.91
2023-01-18T05:01:31.052Z,98603.63
2023-01-18T05:04:34.183Z,98596.69
2023-01-18T05:07:38.550Z,98610.28
2023-01-18T05:10:41.593Z,98614.31
2023-01-18T05:13:48.192Z,98615.97
2023-01-18T05:16:51.307Z,98622.69
2023-01-18T05:19:54.949Z,98625.16
2023-01-18T05:22:59.916Z,98619.16
2023-01-18T05:26:04.951Z,98621.28
2023-01-18T05:29:08.007Z,98625.31
2023-01-18T05:32:11.809Z,98626.59
2023-01-18T05:35:14.827Z,98628.69
2023-01-18T05:38:20.388Z,98635.38
2023-01-18T05:41:23.470Z,98639.41
2023-01-18T05:44:26.607Z,98625.50
2023-01-18T05:47:29.659Z,98633.72
2023-01-18T05:50:32.655Z,98634.19
2023-01-18T05:53:50.035Z,98644.91
2023-01-18T05:56:53.110Z,98636.84
2023-01-18T05:59:56.156Z,98645.81
2023-01-18T06:02:59.678Z,98645.69
2023-01-18T06:06:02.953Z,98652.38
2023-01-18T06:09:08.000Z,98653.00
2023-01-18T06:12:11.355Z,98665.88
2023-01-18T06:15:15.598Z,98668.09
2023-01-18T06:18:18.812Z,98667.16
2023-01-18T06:21:24.683Z,98665.16
2023-01-18T06:24:31.845Z,98670.91
2023-01-18T06:27:35.134Z,98682.16
2023-01-18T06:30:38.250Z,98675.88
2023-01-18T06:33:41.374Z,98691.94
2023-01-18T06:36:45.157Z,98692.03
2023-01-18T06:39:49.562Z,98687.53
2023-01-18T06:42:52.845Z,98692.09
2023-01-18T06:45:57.337Z,98698.06
2023-01-18T06:49:00.650Z,98703.72
2023-01-18T06:52:03.902Z,98707.38
2023-01-18T06:55:09.164Z,98712.31
2023-01-18T06:58:12.444Z,98722.75
2023-01-18T07:01:15.613Z,98713.50
2023-01-18T07:04:18.698Z,98717.63
2023-01-18T07:07:22.472Z,98720.91
2023-01-18T07:10:48.554Z,98721.63
2023-01-18T07:14:11.509Z,98735.06
2023-01-18T07:17:16.236Z,98732.41
2023-01-18T07:20:20.471Z,98735.72
2023-01-18T07:23:23.566Z,98747.38
2023-01-18T07:26:28.018Z,98752.34
2023-01-18T07:29:31.237Z,98753.97
2023-01-18T07:32:34.253Z,98767.53
2023-01-18T07:35:37.344Z,98772.44
2023-01-18T07:38:40.628Z,98764.59
2023-01-18T07:41:45.341Z,98775.75
2023-01-18T07:44:48.654Z,98779.84
2023-01-18T07:47:53.376Z,98784.81
2023-01-18T07:50:58.803Z,98784.81
2023-01-18T07:54:02.142Z,98785.44
2023-01-18T07:57:06.917Z,98777.84
2023-01-18T08:00:14.703Z,98780.31
2023-01-18T08:03:19.743Z,98777.66
2023-01-18T08:06:25.651Z,98781.56
2023-01-18T08:09:29.090Z,98775.63
2023-01-18T08:12:33.476Z,98781.22
2023-01-18T08:15:37.160Z,98779.22
2023-01-18T08:18:40.894Z,98789.38
2023-01-18T08:21:43.991Z,98788.28
2023-01-18T08:24:47.064Z,98794.09
2023-01-18T08:27:51.546Z,98794.00
2023-01-18T08:30:54.920Z,98800.44
2023-01-18T08:34:00.472Z,98799.78
2023-01-18T08:37:04.455Z,98802.06
2023-01-18T08:40:09.567Z,98807.19
2023-01-18T08:43:32.873Z,98820.53
2023-01-18T08:46:54.240Z,98816.97
2023-01-18T08:50:15.733Z,98821.09
2023-01-18T08:53:37.389Z,98832.69
2023-01-18T08:56:59.402Z,98834.88
2023-01-18T09:00:26.776Z,98839.72
2023-01-18T09:03:50.435Z,98845.31
2023-01-18T09:07:12.218Z,98844.47
2023-01-18T09:10:37.447Z,98845.75
2023-01-18T09:14:01.665Z,98852.13
2023-01-18T09:17:24.997Z,98856.31
2023-01-18T09:20:46.494Z,98858.53
2023-01-18T09:24:09.540Z,98859.97
2023-01-18T09:27:31.277Z,98860.22
2023-01-18T09:30:53.360Z,98873.59
2023-01-18T09:34:17.715Z,98871.94
2023-01-18T09:37:21.558Z,98882.75
2023-01-18T09:40:35.803Z,98882.78
2023-01-18T09:43:45.645Z,98885.59
2023-01-18T09:46:54.312Z,98881.06
2023-01-18T09:50:02.344Z,98884.00
2023-01-18T09:53:19.945Z,98889.44
2023-01-18T09:56:28.710Z,98893.84
2023-01-18T09:59:38.258Z,98885.22
2023-01-18T10:02:43.083Z,98883.84
2023-01-18T10:06:08.265Z,98891.44
2023-01-18T10:09:17.569Z,98884.88
2023-01-18T10:12:28.060Z,98878.94
2023-01-18T10:15:36.479Z,98884.06
2023-01-18T10:18:45.627Z,98879.63
2023-01-18T10:21:56.332Z,98885.31
2023-01-18T10:25:04.976Z,98884.72
2023-01-18T10:28:25.293Z,98882.03
2023-01-18T10:31:44.506Z,98889.63
2023-01-18T10:34:53.656Z,98885.72
2023-01-18T10:38:02.362Z,98887.59
2023-01-18T10:41:06.159Z,98895.81
2023-01-18T10:44:10.238Z,98889.63
2023-01-18T10:47:18.008Z,98890.66
2023-01-18T10:50:25.009Z,98899.50
2023-01-18T10:53:36.481Z,98907.09
2023-01-18T10:56:40.094Z,98902.19
2023-01-18T10:59:44.018Z,98905.97
2023-01-18T11:02:51.520Z,98913.06
2023-01-18T11:06:06.202Z,98905.38
2023-01-18T11:09:42.032Z,98912.22
2023-01-18T11:12:48.531Z,98910.69
2023-01-18T11:16:10.583Z,98915.72
2023-01-18T11:19:19.956Z,98915.72
2023-01-18T11:22:25.067Z,98917.16
2023-01-18T11:25:38.740Z,98921.56
2023-01-18T11:28:51.329Z,98925.59
2023-01-18T11:31:56.183Z,98929.38
2023-01-18T11:35:00.992Z,98926.50
2023-01-18T11:38:06.743Z,98921.16
2023-01-18T11:41:21.302Z,98930.22
2023-01-18T11:44:28.619Z,98927.75
2023-01-18T11:47:40.772Z,98922.50
2023-01-18T11:50:48.383Z,98919.44
2023-01-18T11:53:59.655Z,98922.19
2023-01-18T11:57:05.033Z,98935.03
2023-01-18T12:00:15.936Z,98928.69
2023-01-18T12:03:47.598Z,98930.78
2023-01-18T12:07:03.247Z,98929.50
2023-01-18T12:10:13.189Z,98935.78
2023-01-18T12:13:36.128Z,98943.50
2023-01-18T12:17:03.001Z,98944.22
2023-01-18T12:20:27.052Z,98937.84
2023-01-18T12:23:57.411Z,98949.63
2023-01-18T12:27:04.877Z,98951.63
2023-01-18T12:30:28.948Z,98960.53
2023-01-18T12:33:47.891Z,98960.16
2023-01-18T12:37:09.321Z,98962.06
2023-01-18T12:40:38.246Z,98959.31
2023-01-18T12:43:52.236Z,98961.94
2023-01-18T12:47:09.281Z,98969.47
2023-01-18T12:50:24.144Z,98971.81
2023-01-18T12:53:40.347Z,98981.91
2023-01-18T12:56:47.138Z,98987.97
2023-01-18T12:59:56.086Z,98995.06
2023-01-18T13:03:00.652Z,99000.81
2023-01-18T13:06:04.284Z,99008.25
2023-01-18T13:09:13.496Z,99006.28
2023-01-18T13:12:17.515Z,99005.34
2023-01-18T13:15:32.748Z,99009.34
2023-01-18T13:18:44.461Z,99010.69
2023-01-18T13:22:07.529Z,99016.72
2023-01-18T13:25:33.617Z,99015.81
2023-01-18T13:28:38.245Z,99020.31
2023-01-18T13:31:41.397Z,99016.09
2023-01-18T13:34:48.970Z,99028.94
2023-01-18T13:37:56.226Z,99042.25
2023-01-18T13:41:05.260Z,99043.28
2023-01-18T13:44:32.288Z,99047.22
2023-01-18T13:48:00.979Z,99044.09
2023-01-18T13:51:07.338Z,99057.75
2023-01-18T13:54:17.662Z,99061.38
2023-01-18T13:57:23.300Z,99063.25
2023-01-18T14:00:27.870Z,99073.13
2023-01-18T14:03:35.303Z,99066.81
2023-01-18T14:06:44.845Z,99082.63
2023-01-18T14:09:50.171Z,99083.81
2023-01-18T14:12:55.974Z,99094.59
2023-01-18T14:16:00.373Z,99104.13
2023-01-18T14:19:15.735Z,99106.22
2023-01-18T14:22:37.368Z,99107.59
2023-01-18T14:25:58.271Z,99115.13
2023-01-18T14:29:05.385Z,99118.41
2023-01-18T14:32:13.654Z,99114.03
2023-01-18T14:35:25.941Z,99119.72
2023-01-18T14:38:31.258Z,99123.16
2023-01-18T14:41:34.543Z,99130.88
2023-01-18T14:44:57.784Z,99133.09
2023-01-18T14:48:09.463Z,99138.03
2023-01-18T14:51:18.341Z,99130.31
2023-01-18T14:54:25.817Z,99145.72
2023-01-18T14:57:28.968Z,99150.69
2023-01-18T15:00:32.419Z,99149.22
2023-01-18T15:03:35.649Z,99157.09
2023-01-18T15:06:42.410Z,99156.00
2023-01-18T15:09:47.788Z,99165.06
2023-01-18T15:12:57.773Z,99162.59
2023-01-18T15:16:02.185Z,99170.31
2023-01-18T15:19:05.843Z,99173.69
2023-01-18T15:22:12.923Z,99187.34
2023-01-18T15:25:24.636Z,99182.41
2023-01-18T15:28:33.894Z,99184.78
2023-01-18T15:31:46.841Z,99199.66
2023-01-18T15:34:52.450Z,99204.41
2023-01-18T15:37:55.951Z,99209.53
2023-01-18T15:41:10.627Z,99213.13
2023-01-18T15:44:48.009Z,99222.94
2023-01-18T15:47:54.217Z,99226.03
2023-01-18T15:50:59.878Z,99232.28
2023-01-18T15:54:10.445Z,99235.22
2023-01-18T15:57:20.570Z,99241.63
2023-01-18T16:00:29.352Z,99255.00
2023-01-18T16:03:37.915Z,99251.19
2023-01-18T16:06:41.074Z,99259.34
2023-01-18T16:09:47.304Z,99265.75
2023-01-18T16:12:52.189Z,99268.97
2023-01-18T16:16:22.439Z,99285.19
2023-01-18T16:19:30.080Z,99284.56
2023-01-18T16:22:37.158Z,99285.56
2023-01-18T16:25:40.570Z,99298.28
2023-01-18T16:28:45.245Z,99294.22
2023-01-18T16:31:49.187Z,99300.66
2023-01-18T16:34:53.276Z,99287.09
2023-01-18T16:38:01.823Z,99300.50
2023-01-18T16:41:05.221Z,99305.63
2023-01-18T16:44:12.563Z,99310.34
2023-01-18T16:47:18.516Z,99310.56
2023-01-18T16:50:21.915Z,99311.13
2023-01-18T16:53:25.036Z,99309.63
2023-01-18T16:56:28.303Z,99318.06
2023-01-18T16:59:34.790Z,99324.97
2023-01-18T17:02:45.764Z,99333.44
2023-01-18T17:05:52.273Z,99340.81
2023-01-18T17:09:05.769Z,99341.97
2023-01-18T17:12:28.026Z,99349.44
2023-01-18T17:16:35.671Z,99360.00
2023-01-18T17:19:45.064Z,99371.75
2023-01-18T17:22:48.597Z,99377.97
2023-01-18T17:25:51.633Z,99391.78
2023-01-18T17:28:56.833Z,99398.22
2023-01-18T17:32:01.227Z,99395.59
2023-01-18T17:35:05.243Z,99403.69
2023-01-18T17:38:22.269Z,99402.22
2023-01-18T17:41:29.145Z,99414.25
2023-01-18T17:44:37.447Z,99421.28
2023-01-18T17:47:44.293Z,99418.78
2023-01-18T17:50:47.546Z,99420.25
2023-01-18T17:53:50.597Z,99423.75
2023-01-18T17:56:54.076Z,99428.06
2023-01-18T17:59:57.161Z,99432.34
2023-01-18T18:03:02.315Z,99441.88
2023-01-18T18:06:06.421Z,99446.25
2023-01-18T18:09:11.572Z,99449.66
2023-01-18T18:12:14.609Z,99454.88
2023-01-18T18:15:17.994Z,99451.56
2023-01-18T18:18:23.590Z,99461.16
2023-01-18T18:21:29.921Z,99465.69
2023-01-18T18:24:32.972Z,99468.59
2023-01-18T18:27:45.372Z,99461.88
2023-01-18T18:30:49.186Z,99471.72
2023-01-18T18:33:53.610Z,99469.31
2023-01-18T18:36:58.902Z,99470.22
2023-01-18T18:40:02.638Z,99477.75
2023-01-18T18:43:06.154Z,99481.47
2023-01-18T18:46:09.463Z,99484.59
2023-01-18T18:49:14.397Z,99493.78
2023-01-18T18:52:17.884Z,99496.22
2023-01-18T18:55:21.023Z,99502.09
2023-01-18T18:58:24.174Z,99509.84
2023-01-18T19:01:30.138Z,99516.81
2023-01-18T19:04:34.644Z,99517.78
2023-01-18T19:07:38.585Z,99517.94
2023-01-18T19:10:41.851Z,99518.09
2023-01-18T19:14:03.257Z,99526.81
2023-01-18T19:22:20.951Z,99524.34
2023-01-18T19:26:27.204Z,99529.88
2023-01-18T19:34:33.169Z,99539.41
2023-01-18T19:37:57.824Z,99542.97
2023-01-18T19:41:12.815Z,99547.53
2023-01-18T19:44:22.715Z,99546.09
2023-01-18T19:47:26.087Z,99555.47
2023-01-18T19:50:32.306Z,99562.06
2023-01-18T19:53:36.959Z,99557.25
2023-01-18T19:56:40.084Z,99562.25
2023-01-18T19:59:43.353Z,99558.00
2023-01-18T20:02:50.391Z,99556.03
2023-01-18T20:05:53.737Z,99562.84
2023-01-18T20:08:58.927Z,99568.22
2023-01-18T20:12:03.249Z,99565.69
2023-01-18T20:15:07.712Z,99575.16
2023-01-18T20:18:13.899Z,99574.72
2023-01-18T20:21:19.173Z,99584.75
2023-01-18T20:24:23.669Z,99579.91
2023-01-18T20:27:26.763Z,99580.63
2023-01-18T20:30:35.618Z,99581.16
2023-01-18T20:33:39.373Z,99582.34
2023-01-18T20:36:42.644Z,99584.19
2023-01-18T20:39:47.266Z,99587.22
2023-01-18T20:42:50.340Z,99584.78
2023-01-18T20:46:01.920Z,99595.94
2023-01-18T20:49:05.859Z,99598.00
2023-01-18T20:52:09.588Z,99595.56
2023-01-18T20:55:17.574Z,99591.06
2023-01-18T20:58:20.653Z,99594.81
2023-01-18T21:01:24.172Z,99598.13
2023-01-18T21:04:27.280Z,99592.16
2023-01-18T21:07:30.438Z,99602.56
2023-01-18T21:10:39.334Z,99601.22
2023-01-18T21:13:42.460Z,99596.25
2023-01-18T21:16:45.785Z,99599.56
2023-01-18T21:19:53.437Z,99608.22
2023-01-18T21:22:57.510Z,99623.75
2023-01-18T21:26:02.206Z,99622.16
2023-01-18T21:29:05.985Z,99620.63
2023-01-18T21:32:09.050Z,99615.75
2023-01-18T21:35:12.597Z,99620.94
2023-01-18T21:38:16.439Z,99627.88
2023-01-18T21:41:38.657Z,99628.59
2023-01-18T21:44:59.326Z,99629.69
2023-01-18T21:48:07.217Z,99629.78
2023-01-18T21:51:28.432Z,99624.16
2023-01-18T21:54:31.423Z,99626.72
2023-01-18T21:57:39.374Z,99631.19
2023-01-18T22:00:43.472Z,99626.06
2023-01-18T22:04:04.521Z,99627.88
2023-01-18T22:07:07.530Z,99627.06
2023-01-18T22:10:11.723Z,99637.44
2023-01-18T22:13:16.072Z,99642.63
2023-01-18T22:16:19.468Z,99647.00
2023-01-18T22:19:22.661Z,99649.63
2023-01-18T22:22:25.706Z,99659.19
2023-01-18T22:25:28.746Z,99663.41
2023-01-18T22:28:33.618Z,99665.28
2023-01-18T22:31:37.108Z,99656.78
2023-01-18T22:34:46.262Z,99664.53
2023-01-18T22:37:49.493Z,99667.03
2023-01-18T22:41:02.722Z,99671.47
2023-01-18T22:44:07.545Z,99680.75
2023-01-18T22:47:10.633Z,99682.72
2023-01-18T22:50:13.659Z,99687.69
2023-01-18T22:53:16.821Z,99695.84
2023-01-18T22:56:22.933Z,99687.25
2023-01-18T22:59:27.374Z,99683.56
2023-01-18T23:02:30.476Z,99685.84
2023-01-18T23:05:33.560Z,99692.44
2023-01-18T23:08:42.358Z,99692.38
2023-01-18T23:11:48.976Z,99687.41
2023-01-18T23:15:11.324Z,99683.41
2023-01-18T23:18:14.612Z,99686.63
2023-01-18T23:21:17.723Z,99684.97
2023-01-18T23:24:21.729Z,99690.31
2023-01-18T23:27:25.450Z,99686.28
2023-01-18T23:30:30.636Z,99693.19
2023-01-18T23:33:33.792Z,99689.88
2023-01-18T23:36:37.031Z,99689.28
2023-01-18T23:39:57.839Z,99686.06
2023-01-18T23:43:18.350Z,99693.50
2023-01-18T23:46:40.604Z,99696.94
2023-01-18T23:50:01.253Z,99700.38
2023-01-18T23:53:22.406Z,99703.97
2023-01-18T23:56:26.106Z,99708.47
2023-01-18T23:59:29.190Z,99707.72
